RKPK/PUS METAR and TAF weather

Enter ICAO airport designator
Station Type Date Time Source
RKPK METAR 2019/04/20 18:00 UTC NOAA

RKPK 201800Z 01003KT CAVOK 11/09 Q1012


Station Type Date Time Source
RKPK Decoded METAR 2019/04/20 18:00 UTC NOAA

Pusan / Kimhae International Airport, Korea, South (RKPK) 35-11N 128-56E 6M
Apr 20, 2019 - 02:00 PM EDT / 2019.04.20 1800 UTC
Wind: from the N (010 degrees) at 3 MPH (3 KT):0
Visibility: greater than 7 mile(s):0
Temperature: 51 F (11 C)
Dew Point: 48 F (9 C)
Relative Humidity: 87%
Pressure (altimeter): 29.88 in. Hg (1012 hPa)
ob: RKPK 201800Z 01003KT CAVOK 11/09 Q1012
cycle: 18

Station Type Date Time Source
RKPK TAF 2019/04/20 18:06 UTC NOAA

TAF RKPK 201700Z 2018/2124 33006KT 9999 FEW030 SCT200 TN08/2021Z TX24/2106Z
BECMG 2101/2102 18012KT
BECMG 2111/2112 33004KT

Example: see airport list